Time;durP1;ratioP1;P1;durP2;ratioP2;P2;SDS_P1;SDS_P2;PMS_P1;PMS_P2;Temp;Humidity;BMP_temperature;BMP_pressure;BME280_temperature;BME280_humidity;BME280_pressure;Samples;Min_cycle;Max_cycle;Signal;HPM_P1;HPM_P2
2021/12/16 00:01:45;;;;;;;60.70;30.00;;;;;;;6.41;89.30;101585.92;84280;1337;22869;-70
2021/12/16 00:03:17;;;;;;;65.30;28.50;;;;;;;6.41;89.45;101577.44;84313;1338;22846;-75
2021/12/16 00:05:26;;;;;;;67.40;30.80;;;;;;;6.43;89.47;101573.61;84305;1336;22629;-76
2021/12/16 00:07:37;;;;;;;65.40;30.10;;;;;;;6.45;89.36;101577.77;84292;1334;22615;-76
2021/12/16 00:09:53;;;;;;;68.60;31.40;;;;;;;6.46;89.47;101578.46;84257;1337;22614;-75
2021/12/16 00:19:51;;;;;;;67.70;31.40;;;;;;;6.42;89.50;101576.05;84306;1337;25326;-69
2021/12/16 00:31:52;;;;;;;70.90;31.90;;;;;;;6.49;89.25;101565.97;84160;1340;22586;-69
2021/12/16 00:34:03;;;;;;;65.30;30.00;;;;;;;6.50;89.48;101561.11;84294;1332;22629;-69
2021/12/16 00:36:11;;;;;;;65.80;32.10;;;;;;;6.53;89.51;101559.55;84313;1337;22606;-71
2021/12/16 00:38:18;;;;;;;67.30;29.50;;;;;;;6.56;89.53;101559.38;84291;1338;22620;-77
2021/12/16 00:40:24;;;;;;;76.90;34.90;;;;;;;6.55;89.37;101560.42;84291;1337;22623;-75
2021/12/16 00:42:40;;;;;;;74.90;35.70;;;;;;;6.53;89.24;101560.07;84305;1337;22610;-75
2021/12/16 00:45:08;;;;;;;70.80;32.90;;;;;;;6.50;89.28;101552.45;84268;1337;22872;-75
2021/12/16 00:47:32;;;;;;;62.40;30.80;;;;;;;6.52;89.40;101552.98;84288;1339;22605;-77
2021/12/16 00:49:43;;;;;;;63.30;29.40;;;;;;;6.52;89.29;101555.05;84276;1337;23044;-77
2021/12/16 00:54:25;;;;;;;66.40;30.60;;;;;;;6.52;89.18;101549.68;84268;1333;24303;-77
2021/12/16 00:56:32;;;;;;;69.20;32.90;;;;;;;6.51;89.34;101543.09;84269;1336;24235;-75
2021/12/16 00:58:44;;;;;;;72.50;33.20;;;;;;;6.52;89.64;101546.55;84278;1337;25421;-76
2021/12/16 01:01:01;;;;;;;70.50;30.90;;;;;;;6.50;89.37;101553.32;84304;1333;23040;-75
2021/12/16 01:03:19;;;;;;;67.10;29.10;;;;;;;6.47;89.14;101553.84;84263;1333;22618;-69
2021/12/16 01:05:57;;;;;;;60.80;30.10;;;;;;;6.46;89.04;101550.91;84268;1338;22618;-70
2021/12/16 01:08:22;;;;;;;68.40;28.80;;;;;;;6.45;89.11;101551.60;84262;1337;22710;-66
2021/12/16 01:34:57;;;;;;;63.20;29.20;;;;;;;6.44;89.18;101522.48;84295;1338;24213;-74
2021/12/16 01:37:37;;;;;;;62.30;30.60;;;;;;;6.42;89.29;101521.80;84298;1334;24308;-77
2021/12/16 01:42:45;;;;;;;53.50;26.30;;;;;;;6.40;89.25;101514.70;84230;1337;22654;-67
2021/12/16 01:47:40;;;;;;;60.00;27.10;;;;;;;6.46;89.62;101510.70;84286;1338;22603;-69
2021/12/16 01:49:57;;;;;;;63.30;29.90;;;;;;;6.49;89.77;101512.05;84274;1339;22591;-69
2021/12/16 01:52:30;;;;;;;58.80;29.80;;;;;;;6.51;89.97;101514.48;84276;1337;22875;-68
2021/12/16 01:54:52;;;;;;;59.70;29.90;;;;;;;6.53;89.73;101512.91;84270;1337;22599;-69
2021/12/16 01:57:06;;;;;;;60.60;29.60;;;;;;;6.52;89.54;101512.23;84287;1333;22631;-70
2021/12/16 01:59:18;;;;;;;65.10;31.20;;;;;;;6.52;89.48;101512.92;84304;1333;22654;-69
2021/12/16 02:01:31;;;;;;;63.70;29.30;;;;;;;6.53;89.50;101518.98;84303;1338;22595;-69
2021/12/16 02:03:42;;;;;;;59.10;29.60;;;;;;;6.54;89.47;101520.19;84306;1337;22629;-70
2021/12/16 02:05:59;;;;;;;58.90;31.50;;;;;;;6.57;89.64;101524.70;84302;1338;22616;-68
2021/12/16 02:08:21;;;;;;;56.10;28.70;;;;;;;6.60;89.99;101527.64;84273;1338;22594;-68
2021/12/16 02:10:34;;;;;;;65.90;31.50;;;;;;;6.61;89.67;101529.54;84291;1338;22609;-69
2021/12/16 02:12:54;;;;;;;60.80;29.20;;;;;;;6.63;89.89;101527.61;84298;1338;24259;-77
2021/12/16 02:27:30;;;;;;;65.00;29.90;;;;;;;6.69;89.58;101540.27;83875;1341;22836;-75
2021/12/16 02:29:57;;;;;;;57.40;27.60;;;;;;;6.68;89.50;101536.09;84273;1338;22626;-77
2021/12/16 02:32:14;;;;;;;54.70;28.10;;;;;;;6.69;89.43;101531.07;84317;1338;24248;-69
2021/12/16 02:34:42;;;;;;;55.20;27.60;;;;;;;6.70;89.48;101526.39;84291;1338;26604;-69
2021/12/16 02:36:50;;;;;;;48.80;26.30;;;;;;;6.71;89.38;101525.70;84285;1337;22638;-76
2021/12/16 02:39:02;;;;;;;52.80;29.50;;;;;;;6.71;89.53;101528.29;84269;1336;23840;-75
2021/12/16 02:41:09;;;;;;;50.30;29.90;;;;;;;6.74;89.61;101530.35;84291;1340;22726;-73
2021/12/16 02:43:49;;;;;;;59.70;29.70;;;;;;;6.75;89.68;101532.79;84292;1339;22630;-75
2021/12/16 02:48:33;;;;;;;50.20;27.40;;;;;;;6.77;89.51;101530.36;84264;1338;22674;-66
2021/12/16 02:50:42;;;;;;;46.90;27.00;;;;;;;6.80;89.51;101527.21;84270;1340;22868;-67
2021/12/16 02:52:52;;;;;;;52.30;26.50;;;;;;;6.84;89.74;101531.37;84300;1333;24250;-66
2021/12/16 02:54:57;;;;;;;;;;;;;;;6.88;89.58;101529.09;84294;1339;22594;-69
2021/12/16 02:57:07;;;;;;;49.30;27.50;;;;;;;6.87;89.52;101529.96;84309;1338;22640;-75
2021/12/16 02:59:16;;;;;;;52.70;30.10;;;;;;;6.87;89.74;101532.39;84295;1337;22616;-75
2021/12/16 03:01:29;;;;;;;47.10;24.70;;;;;;;6.86;89.52;101534.83;84260;1339;22598;-68
2021/12/16 03:03:38;;;;;;;51.50;27.40;;;;;;;6.87;89.61;101532.73;84275;1339;23934;-69
2021/12/16 03:05:45;;;;;;;49.50;25.50;;;;;;;6.87;89.58;101534.30;84295;1338;24208;-71
2021/12/16 03:07:55;;;;;;;46.60;26.80;;;;;;;6.88;89.55;101530.83;84305;1338;22953;-74
2021/12/16 03:10:45;;;;;;;50.10;26.30;;;;;;;6.91;89.71;101534.11;84297;1336;22601;-77
2021/12/16 03:12:57;;;;;;;48.30;26.00;;;;;;;6.90;89.53;101534.11;84334;1336;22637;-77
2021/12/16 03:15:12;;;;;;;50.80;28.00;;;;;;;6.86;89.46;101536.92;84171;1338;24900;-68
2021/12/16 03:17:24;;;;;;;50.30;26.60;;;;;;;6.85;89.56;101539.16;84298;1338;22614;-70
2021/12/16 03:19:46;;;;;;;47.30;27.20;;;;;;;6.84;89.50;101532.92;84258;1338;23971;-70
2021/12/16 03:21:58;;;;;;;47.30;25.40;;;;;;;6.85;89.38;101529.98;84264;1337;23939;-69
2021/12/16 03:29:25;;;;;;;46.50;26.00;;;;;;;6.92;89.44;101529.93;83977;1340;26492;-77
2021/12/16 03:31:49;;;;;;;47.80;27.50;;;;;;;6.91;89.41;101530.64;84310;1337;25824;-76
2021/12/16 03:34:21;;;;;;;51.30;29.60;;;;;;;6.92;89.63;101527.34;84296;1332;22766;-75
2021/12/16 03:36:31;;;;;;;44.60;25.50;;;;;;;6.92;89.65;101528.73;84275;1337;25463;-69
2021/12/16 03:38:39;;;;;;;47.90;26.00;;;;;;;6.93;89.42;101530.46;84288;1337;22611;-71
2021/12/16 03:40:45;;;;;;;43.10;23.20;;;;;;;6.93;89.33;101527.67;84291;1337;22638;-69
2021/12/16 03:42:56;;;;;;;43.60;25.60;;;;;;;6.93;89.32;101531.14;84102;1339;22719;-68
2021/12/16 03:46:25;;;;;;;42.00;25.00;;;;;;;6.95;89.57;101530.28;84278;1340;22736;-69
2021/12/16 03:47:43;;;;;;;47.90;26.30;;;;;;;6.98;89.34;101528.86;84315;1340;22918;-68
2021/12/16 03:49:52;;;;;;;47.00;26.80;;;;;;;6.97;89.37;101525.23;84306;1338;25414;-70
2021/12/16 03:52:06;;;;;;;46.50;25.90;;;;;;;6.93;89.00;101525.95;84289;1336;22674;-66
2021/12/16 03:54:15;;;;;;;42.70;24.70;;;;;;;6.92;89.18;101522.30;84284;1337;22630;-69
2021/12/16 03:56:24;;;;;;;49.40;27.30;;;;;;;6.90;89.09;101519.02;84279;1338;24040;-71
2021/12/16 03:58:34;;;;;;;44.90;26.60;;;;;;;6.89;88.96;101519.20;84113;1342;22546;-70
2021/12/16 04:00:43;;;;;;;43.70;25.60;;;;;;;6.93;89.23;101517.79;84284;1340;22964;-68
2021/12/16 04:02:49;;;;;;;44.10;27.00;;;;;;;6.97;89.40;101517.59;84322;1338;22841;-69
2021/12/16 04:04:56;;;;;;;46.10;28.90;;;;;;;7.00;89.34;101518.29;84281;1340;23357;-67
2021/12/16 04:07:02;;;;;;;49.80;28.00;;;;;;;7.02;89.41;101510.29;84266;1339;22727;-69
2021/12/16 04:09:11;;;;;;;47.10;27.30;;;;;;;7.03;89.44;101508.71;84310;1337;22837;-69
2021/12/16 04:11:22;;;;;;;46.50;26.60;;;;;;;7.03;88.88;101506.81;84105;1340;24261;-73
2021/12/16 04:13:29;;;;;;;42.00;24.30;;;;;;;7.03;88.93;101507.67;84304;1337;24295;-74
2021/12/16 04:15:38;;;;;;;45.80;26.30;;;;;;;7.03;88.79;101507.51;84276;1340;25499;-75
2021/12/16 04:17:48;;;;;;;40.50;25.50;;;;;;;7.04;88.89;101505.07;84277;1336;23012;-76
2021/12/16 04:19:54;;;;;;;45.00;26.60;;;;;;;7.03;88.68;101495.88;84298;1340;22603;-73
2021/12/16 04:22:02;;;;;;;49.00;27.50;;;;;;;7.02;88.73;101493.46;84284;1337;22823;-75
2021/12/16 04:24:09;;;;;;;50.80;26.30;;;;;;;6.99;88.69;101493.48;84277;1333;22623;-75
2021/12/16 04:26:22;;;;;;;42.20;23.90;;;;;;;6.98;88.71;101492.96;84327;1339;22651;-73
2021/12/16 04:28:30;;;;;;;42.90;24.70;;;;;;;6.98;88.65;101491.23;84190;1340;22800;-70
2021/12/16 04:30:37;;;;;;;44.50;28.10;;;;;;;6.96;88.38;101495.05;84278;1337;22625;-69
2021/12/16 04:32:47;;;;;;;49.20;26.90;;;;;;;6.94;88.61;101495.41;84276;1340;22611;-69
2021/12/16 04:34:55;;;;;;;54.00;27.90;;;;;;;6.93;88.47;101490.38;84270;1340;22616;-70
2021/12/16 04:37:01;;;;;;;51.80;29.80;;;;;;;6.91;88.60;101491.80;84295;1340;22604;-75
2021/12/16 04:39:14;;;;;;;51.90;27.90;;;;;;;6.90;88.75;101489.55;84308;1336;22632;-75
2021/12/16 04:41:20;;;;;;;48.60;28.30;;;;;;;6.92;88.82;101489.52;84289;1338;22604;-75
2021/12/16 04:43:38;;;;;;;49.80;28.50;;;;;;;6.91;88.60;101486.41;84280;1338;22608;-74
2021/12/16 04:45:45;;;;;;;48.20;27.80;;;;;;;6.91;88.64;101486.77;84305;1334;22603;-75
2021/12/16 04:47:55;;;;;;;48.40;28.80;;;;;;;6.92;88.71;101486.57;84296;1339;22902;-76
2021/12/16 04:50:02;;;;;;;49.00;29.70;;;;;;;6.93;88.79;101484.30;84288;1339;22607;-75
2021/12/16 04:52:11;;;;;;;51.50;31.50;;;;;;;6.91;88.53;101480.51;84071;1338;369005;-76
2021/12/16 04:54:23;;;;;;;47.40;28.20;;;;;;;6.89;88.56;101476.70;84303;1337;22607;-77
2021/12/16 04:56:30;;;;;;;42.70;26.40;;;;;;;6.88;88.53;101470.46;84274;1340;24251;-75
2021/12/16 04:58:37;;;;;;;45.40;26.40;;;;;;;6.87;88.57;101471.16;84275;1338;22937;-74
2021/12/16 05:00:44;;;;;;;44.80;26.40;;;;;;;6.88;88.54;101472.70;84282;1338;24236;-75
2021/12/16 05:02:51;;;;;;;46.30;27.20;;;;;;;6.89;88.54;101474.27;84304;1337;22626;-69
2021/12/16 05:04:58;;;;;;;47.50;28.90;;;;;;;6.89;88.51;101479.98;84285;1336;22596;-68
2021/12/16 05:07:07;;;;;;;53.10;29.30;;;;;;;6.88;88.36;101480.88;84304;1336;22874;-69
2021/12/16 05:09:44;;;;;;;50.90;29.30;;;;;;;6.89;88.57;101476.70;84293;1334;22624;-68
2021/12/16 05:11:44;;;;;;;53.50;29.90;;;;;;;6.87;88.56;101475.67;84291;1340;25932;-76
2021/12/16 05:13:51;;;;;;;45.50;27.30;;;;;;;6.87;88.31;101475.67;84263;1337;22896;-70
2021/12/16 05:16:03;;;;;;;43.30;25.20;;;;;;;6.88;88.38;101479.65;84183;1338;24295;-69
2021/12/16 05:18:19;;;;;;;43.60;28.60;;;;;;;6.88;88.38;101481.56;84295;1340;22630;-75
2021/12/16 05:20:28;;;;;;;42.10;26.50;;;;;;;6.90;88.38;101483.30;84293;1340;22725;-73
2021/12/16 05:25:00;;;;;;;43.40;27.20;;;;;;;6.89;88.42;101482.95;84285;1338;22619;-77
2021/12/16 05:27:09;;;;;;;45.80;27.70;;;;;;;6.86;88.41;101483.48;84270;1338;25285;-77
2021/12/16 05:29:16;;;;;;;45.40;26.20;;;;;;;6.85;88.07;101486.95;84274;1340;22640;-76
2021/12/16 05:31:28;;;;;;;45.70;25.50;;;;;;;6.85;88.11;101488.87;84280;1337;24865;-72
2021/12/16 05:33:35;;;;;;;39.60;25.60;;;;;;;6.87;88.23;101491.29;84263;1337;24308;-76
2021/12/16 05:35:47;;;;;;;44.90;27.50;;;;;;;6.85;88.24;101485.41;84298;1340;22618;-75
2021/12/16 05:37:55;;;;;;;40.80;27.10;;;;;;;6.87;88.56;101479.48;84304;1339;24292;-75
2021/12/16 05:40:03;;;;;;;41.90;28.80;;;;;;;6.89;88.57;101483.64;84297;1337;23068;-76
2021/12/16 05:42:11;;;;;;;42.60;26.00;;;;;;;6.85;88.09;101480.02;84287;1338;22622;-69
2021/12/16 05:44:18;;;;;;;40.90;26.10;;;;;;;6.83;88.22;101478.64;84304;1340;22864;-69
2021/12/16 05:46:25;;;;;;;41.90;25.70;;;;;;;6.84;88.25;101477.07;84291;1341;23040;-74
2021/12/16 05:48:36;;;;;;;49.20;27.20;;;;;;;6.85;88.31;101472.73;84298;1338;24268;-74
2021/12/16 05:50:48;;;;;;;38.80;25.20;;;;;;;6.86;88.35;101476.55;84305;1340;22639;-74
2021/12/16 05:52:55;;;;;;;40.40;26.30;;;;;;;6.87;88.48;101478.80;84278;1340;23960;-76
2021/12/16 05:55:06;;;;;;;43.20;26.20;;;;;;;6.87;88.58;101475.67;84302;1339;22603;-77
2021/12/16 05:57:14;;;;;;;43.20;25.40;;;;;;;6.86;88.49;101478.63;84307;1337;26497;-71
2021/12/16 05:59:21;;;;;;;37.90;24.70;;;;;;;6.87;88.45;101481.23;84289;1337;22722;-70
2021/12/16 06:01:33;;;;;;;35.50;23.40;;;;;;;6.87;88.25;101479.48;84303;1341;22590;-72
2021/12/16 06:03:43;;;;;;;37.20;24.90;;;;;;;6.86;88.04;101474.48;84299;1339;24255;-70
2021/12/16 06:05:53;;;;;;;38.40;25.40;;;;;;;6.85;88.01;101476.21;84287;1337;22623;-71
2021/12/16 06:08:00;;;;;;;43.00;26.90;;;;;;;6.85;88.39;101476.39;84274;1338;22625;-76
2021/12/16 06:10:30;;;;;;;44.80;27.60;;;;;;;6.84;88.35;101473.77;84275;1339;22668;-78
2021/12/16 06:12:37;;;;;;;40.70;25.70;;;;;;;6.85;88.45;101477.08;84266;1340;22677;-79
2021/12/16 06:14:56;;;;;;;37.80;24.00;;;;;;;6.86;88.31;101478.81;84293;1338;22614;-78
2021/12/16 06:26:59;;;;;;;39.70;26.60;;;;;;;6.90;88.25;101493.88;84294;1337;22619;-77
2021/12/16 06:29:06;;;;;;;37.20;24.90;;;;;;;6.88;88.14;101495.61;84291;1338;22629;-77
2021/12/16 06:31:22;;;;;;;36.20;22.80;;;;;;;6.87;88.15;101493.72;84288;1337;22629;-74
2021/12/16 06:33:29;;;;;;;37.90;24.00;;;;;;;6.86;87.98;101491.30;84312;1336;22595;-70
2021/12/16 06:35:36;;;;;;;31.70;24.30;;;;;;;6.87;87.98;101497.02;84268;1337;22632;-71
2021/12/16 06:37:45;;;;;;;42.20;25.30;;;;;;;6.85;87.83;101496.33;84322;1339;22627;-77
2021/12/16 06:39:52;;;;;;;38.40;25.60;;;;;;;6.83;88.02;101498.05;84302;1334;24422;-77
2021/12/16 06:42:05;;;;;;;41.80;26.50;;;;;;;6.81;87.66;101502.06;84288;1338;22682;-71
2021/12/16 06:44:18;;;;;;;43.30;27.00;;;;;;;6.79;88.14;101507.27;84289;1332;24331;-70
2021/12/16 06:46:32;;;;;;;41.50;23.80;;;;;;;6.81;88.08;101504.33;84281;1338;22606;-77
2021/12/16 06:48:44;;;;;;;37.50;24.20;;;;;;;6.82;88.07;101508.30;84280;1337;22621;-78
2021/12/16 06:50:55;;;;;;;37.90;24.20;;;;;;;6.83;88.20;101509.16;84289;1338;24226;-75
2021/12/16 06:53:06;;;;;;;36.80;24.50;;;;;;;6.82;88.17;101509.69;84274;1337;22608;-77
2021/12/16 06:55:20;;;;;;;39.80;26.70;;;;;;;6.83;88.22;101507.78;84325;1336;22632;-77
2021/12/16 06:57:37;;;;;;;40.50;26.00;;;;;;;6.83;88.35;101508.30;84270;1340;22598;-69
2021/12/16 06:59:52;;;;;;;34.70;24.70;;;;;;;6.84;88.47;101506.73;84287;1337;24012;-75
2021/12/16 07:02:08;;;;;;;37.90;24.10;;;;;;;6.85;88.32;101507.95;84287;1337;23613;-69
2021/12/16 07:04:18;;;;;;;37.40;23.90;;;;;;;6.86;88.16;101509.33;84287;1338;22603;-71
2021/12/16 07:06:27;;;;;;;35.60;24.30;;;;;;;6.86;88.13;101504.98;84196;1334;22616;-71
2021/12/16 07:08:34;;;;;;;38.70;24.60;;;;;;;6.85;87.93;101499.80;84289;1338;22823;-71
2021/12/16 07:10:45;;;;;;;40.70;25.30;;;;;;;6.84;88.11;101501.70;84303;1337;22725;-71
2021/12/16 07:12:52;;;;;;;38.90;25.40;;;;;;;6.87;88.25;101498.05;84272;1338;22685;-71
2021/12/16 07:14:59;;;;;;;38.90;25.90;;;;;;;6.88;88.32;101498.20;84103;1338;24299;-71
2021/12/16 07:17:10;;;;;;;35.40;22.80;;;;;;;6.89;88.24;101490.40;84326;1339;25444;-77
2021/12/16 07:19:17;;;;;;;38.30;23.30;;;;;;;6.91;88.31;101490.92;84356;1336;22598;-76
2021/12/16 07:21:24;;;;;;;35.10;23.80;;;;;;;6.94;88.38;101488.63;84170;1337;22625;-69
2021/12/16 07:23:30;;;;;;;32.40;23.30;;;;;;;6.95;88.17;101485.52;84308;1338;24257;-71
2021/12/16 07:25:40;;;;;;;39.30;23.80;;;;;;;6.95;88.06;101476.85;84297;1340;22831;-76
2021/12/16 07:27:49;;;;;;;35.90;25.30;;;;;;;6.94;88.08;101476.84;84297;1339;23954;-71
2021/12/16 07:29:56;;;;;;;36.20;25.10;;;;;;;6.94;88.15;101482.05;84294;1337;22678;-74
2021/12/16 07:32:03;;;;;;;37.80;23.70;;;;;;;6.92;88.30;101485.36;84283;1338;22715;-72
2021/12/16 07:34:09;;;;;;;33.60;22.30;;;;;;;6.92;88.33;101484.32;84266;1337;23954;-73
2021/12/16 07:36:18;;;;;;;33.70;21.80;;;;;;;6.94;88.34;101482.57;84291;1337;25296;-71
2021/12/16 07:38:25;;;;;;;30.90;21.00;;;;;;;6.98;88.31;101476.30;84285;1337;22796;-70
2021/12/16 07:40:33;;;;;;;32.90;21.60;;;;;;;7.02;88.35;101475.77;84286;1340;25569;-72
2021/12/16 07:42:47;;;;;;;34.60;23.10;;;;;;;7.03;88.42;101476.79;84300;1334;22618;-71
2021/12/16 07:44:53;;;;;;;31.40;22.50;;;;;;;7.05;88.44;101472.28;84166;1338;24142;-72
2021/12/16 07:47:01;;;;;;;37.30;25.60;;;;;;;7.07;88.51;101469.84;84271;1337;22627;-72
2021/12/16 07:49:13;;;;;;;39.50;24.10;;;;;;;7.07;88.43;101471.91;84297;1338;22686;-71
2021/12/16 07:51:22;;;;;;;36.40;24.90;;;;;;;7.06;88.23;101465.34;84302;1338;22677;-74
2021/12/16 07:53:31;;;;;;;39.70;24.40;;;;;;;7.06;88.09;101466.39;84302;1339;22795;-73
2021/12/16 07:55:41;;;;;;;36.70;22.40;;;;;;;7.06;88.10;101465.16;84270;1338;25562;-71
2021/12/16 07:57:48;;;;;;;31.70;22.50;;;;;;;7.06;88.19;101471.06;84304;1333;22612;-75
2021/12/16 07:59:58;;;;;;;35.10;22.50;;;;;;;7.08;88.08;101475.38;84262;1340;22634;-76
2021/12/16 08:02:11;;;;;;;34.70;22.20;;;;;;;7.09;88.28;101481.78;84155;1338;25549;-72
2021/12/16 08:04:27;;;;;;;36.50;24.50;;;;;;;7.12;88.48;101480.04;84289;1340;22654;-72
2021/12/16 08:06:37;;;;;;;35.30;23.20;;;;;;;7.14;88.27;101476.38;84283;1337;23922;-78
2021/12/16 08:08:44;;;;;;;37.00;23.20;;;;;;;7.13;88.38;101478.65;84308;1340;22606;-76
2021/12/16 08:10:52;;;;;;;33.20;22.30;;;;;;;7.13;88.05;101481.08;84295;1338;25481;-75
2021/12/16 08:12:59;;;;;;;32.60;21.80;;;;;;;7.14;88.21;101485.41;84295;1337;23985;-77
2021/12/16 08:15:10;;;;;;;34.00;22.40;;;;;;;7.16;88.24;101488.36;84314;1336;22759;-75
2021/12/16 08:17:21;;;;;;;32.70;22.10;;;;;;;7.20;88.43;101492.84;84298;1338;22621;-75
2021/12/16 08:19:26;;;;;;;;;;;;;;;7.23;88.56;101489.52;84313;1338;22613;-69
2021/12/16 08:21:34;;;;;;;36.90;21.70;;;;;;;7.23;88.52;101483.80;84266;1333;22646;-75
2021/12/16 08:23:44;;;;;;;37.60;22.50;;;;;;;7.20;88.19;101477.73;84295;1333;22613;-77
2021/12/16 08:25:51;;;;;;;34.00;21.10;;;;;;;7.17;88.31;101474.80;84182;1338;22787;-73
2021/12/16 08:28:03;;;;;;;34.00;20.10;;;;;;;7.18;88.42;101480.70;84306;1338;25352;-76
2021/12/16 08:30:12;;;;;;;30.50;19.00;;;;;;;7.19;88.32;101489.36;84284;1333;23284;-76
2021/12/16 08:32:23;;;;;;;27.10;19.50;;;;;;;7.18;88.37;101494.57;84275;1338;22620;-72
2021/12/16 08:34:33;;;;;;;28.30;19.00;;;;;;;7.23;88.57;101493.67;84299;1338;22639;-69
2021/12/16 08:36:43;;;;;;;30.50;20.10;;;;;;;7.27;88.55;101499.74;84300;1337;25456;-68
2021/12/16 08:38:51;;;;;;;;;;;;;;;7.30;88.61;101501.47;84285;1339;22842;-68
2021/12/16 08:41:01;;;;;;;33.10;20.00;;;;;;;7.29;88.65;101498.86;84291;1338;25338;-69
2021/12/16 08:43:12;;;;;;;33.50;21.60;;;;;;;7.30;88.45;101502.67;84292;1338;22678;-77
2021/12/16 08:45:21;;;;;;;33.00;21.20;;;;;;;7.27;88.42;101504.94;84179;1338;22625;-76
2021/12/16 08:47:29;;;;;;;26.90;17.40;;;;;;;7.24;88.17;101510.34;84310;1334;22626;-77
2021/12/16 08:49:39;;;;;;;31.80;17.90;;;;;;;7.22;88.18;101513.13;84288;1338;22822;-74
2021/12/16 08:51:46;;;;;;;;;;;;;;;7.23;88.33;101521.11;84313;1340;22617;-76
2021/12/16 08:53:53;;;;;;;24.50;16.70;;;;;;;7.21;88.32;101522.34;84285;1337;22599;-76
2021/12/16 08:56:04;;;;;;;23.00;15.70;;;;;;;7.21;88.20;101516.27;84268;1338;22608;-78
2021/12/16 08:58:14;;;;;;;27.50;19.90;;;;;;;7.19;88.33;101513.66;84311;1337;22596;-69
2021/12/16 09:00:25;;;;;;;27.10;19.00;;;;;;;7.21;88.59;101499.60;84284;1333;22803;-69
2021/12/16 09:02:36;;;;;;;30.50;19.20;;;;;;;7.25;88.71;101496.29;84245;1334;22845;-77
2021/12/16 09:04:43;;;;;;;28.80;18.10;;;;;;;7.26;88.87;101503.39;84296;1338;24301;-76
2021/12/16 09:06:54;;;;;;;27.20;16.20;;;;;;;7.25;88.41;101502.01;84317;1340;22631;-69
2021/12/16 09:09:01;;;;;;;24.10;16.80;;;;;;;7.22;88.39;101498.20;84282;1339;23938;-69
2021/12/16 09:11:09;;;;;;;24.50;17.20;;;;;;;7.26;88.59;101501.30;84289;1340;24331;-70
2021/12/16 09:13:19;;;;;;;24.80;18.30;;;;;;;7.27;88.47;101487.77;84292;1337;25554;-70
2021/12/16 09:15:27;;;;;;;24.30;16.90;;;;;;;7.29;88.74;101486.36;84272;1334;22628;-72
2021/12/16 09:17:34;;;;;;;26.00;17.70;;;;;;;7.31;88.51;101483.40;84307;1338;22640;-71
2021/12/16 09:19:42;;;;;;;26.60;17.30;;;;;;;7.33;88.73;101489.79;84292;1333;22607;-70
2021/12/16 09:21:48;;;;;;;25.90;16.00;;;;;;;7.33;88.56;101490.14;84292;1338;22604;-77
2021/12/16 09:23:55;;;;;;;24.80;15.50;;;;;;;7.34;88.54;101483.73;84297;1338;24372;-74
2021/12/16 09:26:02;;;;;;;22.10;16.50;;;;;;;7.35;88.61;101484.77;84277;1337;23079;-77
2021/12/16 09:28:09;;;;;;;24.70;15.80;;;;;;;7.41;88.89;101481.23;84304;1338;23206;-68
2021/12/16 09:30:17;;;;;;;24.30;16.50;;;;;;;7.44;88.80;101480.01;84288;1338;25339;-69
2021/12/16 09:32:27;;;;;;;26.40;16.80;;;;;;;7.45;88.74;101491.11;84274;1337;26050;-75
2021/12/16 09:34:33;;;;;;;18.50;13.20;;;;;;;7.44;88.62;101488.52;84271;1336;23079;-78
2021/12/16 09:36:45;;;;;;;21.70;14.50;;;;;;;7.44;88.52;101486.27;84285;1337;22629;-76
2021/12/16 09:38:52;;;;;;;19.90;13.50;;;;;;;7.45;88.54;101492.85;84284;1336;24225;-77
2021/12/16 09:41:01;;;;;;;20.60;15.60;;;;;;;7.46;88.50;101495.10;84285;1337;22902;-78
2021/12/16 09:43:08;;;;;;;27.70;16.60;;;;;;;7.43;88.36;101489.73;84278;1339;22620;-70
2021/12/16 09:45:15;;;;;;;22.70;15.90;;;;;;;7.43;88.65;101485.39;84271;1338;22624;-70
2021/12/16 09:47:27;;;;;;;20.40;15.50;;;;;;;7.43;88.51;101487.31;84276;1333;22645;-70
2021/12/16 09:49:34;;;;;;;22.50;15.60;;;;;;;7.39;88.44;101494.97;84300;1338;25516;-72
2021/12/16 09:51:43;;;;;;;19.70;14.30;;;;;;;7.38;88.41;101503.48;84284;1338;22648;-69
2021/12/16 09:53:54;;;;;;;19.90;13.70;;;;;;;7.36;88.31;101502.11;84300;1337;22628;-70
2021/12/16 09:56:01;;;;;;;19.80;14.20;;;;;;;7.35;88.40;101504.73;84288;1338;25505;-70
2021/12/16 09:58:08;;;;;;;23.60;14.60;;;;;;;7.33;88.49;101505.60;84295;1337;23974;-76
2021/12/16 10:00:18;;;;;;;18.90;14.20;;;;;;;7.31;88.55;101505.44;84298;1338;24256;-67
2021/12/16 10:02:29;;;;;;;23.10;16.40;;;;;;;7.33;88.79;101507.67;84298;1337;25382;-67
2021/12/16 10:04:39;;;;;;;19.60;15.50;;;;;;;7.33;88.78;101501.95;84295;1339;22966;-73
2021/12/16 10:06:50;;;;;;;21.50;14.90;;;;;;;7.32;88.84;101496.58;84306;1337;22597;-66
2021/12/16 10:09:00;;;;;;;19.50;14.20;;;;;;;7.35;89.00;101487.55;84196;1340;22599;-75
2021/12/16 10:11:10;;;;;;;;;;;;;;;7.34;88.94;101488.94;84297;1337;22601;-76
2021/12/16 10:13:23;;;;;;;18.90;14.30;;;;;;;7.30;88.93;101492.61;84270;1335;24000;-69
2021/12/16 10:18:05;;;;;;;21.30;14.90;;;;;;;7.32;89.04;101484.42;84007;1338;22616;-76
2021/12/16 10:20:16;;;;;;;;;;;;;;;7.34;89.06;101477.64;84331;1338;22596;-68
2021/12/16 10:22:31;;;;;;;23.20;15.80;;;;;;;7.33;89.24;101474.86;84272;1336;22659;-76
2021/12/16 10:24:42;;;;;;;22.70;17.00;;;;;;;7.33;89.25;101471.73;84286;1338;22621;-76
2021/12/16 10:27:10;;;;;;;22.50;14.90;;;;;;;7.34;89.28;101468.80;84277;1337;22696;-75
2021/12/16 10:29:16;;;;;;;20.10;14.90;;;;;;;7.35;89.09;101459.77;84307;1337;26815;-75
2021/12/16 10:31:25;;;;;;;21.00;13.40;;;;;;;7.35;88.98;101456.82;84246;1337;24234;-69
2021/12/16 10:33:35;;;;;;;19.40;15.00;;;;;;;7.37;89.30;101457.30;84277;1338;22677;-74
2021/12/16 10:35:47;;;;;;;22.00;15.70;;;;;;;7.42;89.28;101462.31;84304;1338;22660;-74
2021/12/16 10:37:56;;;;;;;24.90;17.40;;;;;;;7.42;89.21;101460.23;84307;1338;25314;-72
2021/12/16 10:40:27;;;;;;;22.70;16.30;;;;;;;7.40;89.16;101465.98;84291;1334;22601;-75
2021/12/16 10:42:47;;;;;;;22.80;15.50;;;;;;;7.39;89.04;101471.52;84080;1340;23996;-76
2021/12/16 10:44:54;;;;;;;28.00;15.40;;;;;;;7.39;89.08;101462.15;84261;1338;22611;-74
2021/12/16 10:47:06;;;;;;;18.80;14.70;;;;;;;7.40;89.19;101464.59;84299;1338;23814;-68
2021/12/16 10:49:16;;;;;;;21.40;14.80;;;;;;;7.40;89.10;101458.86;84293;1337;22644;-70
2021/12/16 10:51:28;;;;;;;25.70;17.00;;;;;;;7.38;88.95;101467.89;84094;1338;22986;-69
2021/12/16 10:54:12;;;;;;;24.80;18.00;;;;;;;7.33;89.05;101471.23;84257;1337;22608;-70
2021/12/16 10:56:23;;;;;;;25.00;17.50;;;;;;;7.28;89.02;101475.43;84257;1338;22620;-69
2021/12/16 10:58:53;;;;;;;25.40;16.40;;;;;;;7.26;89.31;101467.80;84261;1336;22663;-70
2021/12/16 11:01:01;;;;;;;29.80;16.40;;;;;;;7.25;89.38;101465.73;84264;1338;22746;-70
2021/12/16 11:03:08;;;;;;;21.80;15.90;;;;;;;7.27;89.35;101457.22;84283;1336;22592;-76
2021/12/16 11:05:16;;;;;;;25.10;16.40;;;;;;;7.30;89.31;101471.77;84271;1334;22741;-74
2021/12/16 11:07:26;;;;;;;20.50;14.60;;;;;;;7.33;89.46;101475.20;84281;1338;22865;-70
2021/12/16 11:09:45;;;;;;;23.10;16.10;;;;;;;7.34;89.22;101467.23;84257;1331;22623;-72
2021/12/16 11:11:54;;;;;;;25.90;16.80;;;;;;;7.31;89.36;101462.91;84285;1336;24289;-75
2021/12/16 11:14:07;;;;;;;22.00;16.70;;;;;;;7.29;89.30;101457.02;84289;1338;22599;-75
2021/12/16 11:16:31;;;;;;;22.40;15.60;;;;;;;7.26;89.18;101455.83;84245;1337;22705;-72
2021/12/16 11:18:39;;;;;;;23.60;15.90;;;;;;;7.28;89.40;101456.16;84263;1337;22613;-74
2021/12/16 11:20:47;;;;;;;23.60;15.50;;;;;;;7.28;89.41;101451.81;84272;1337;22615;-68
2021/12/16 11:22:58;;;;;;;19.40;13.80;;;;;;;7.31;89.55;101446.44;84302;1333;22632;-68
2021/12/16 11:25:17;;;;;;;22.20;14.80;;;;;;;7.37;89.95;101443.08;84264;1337;23082;-66
2021/12/16 11:27:36;;;;;;;21.80;14.30;;;;;;;7.45;89.78;101441.46;84255;1338;22751;-76
2021/12/16 11:29:43;;;;;;;22.90;15.50;;;;;;;7.44;89.50;101444.94;84243;1337;24287;-74
2021/12/16 11:31:52;;;;;;;18.70;15.10;;;;;;;7.44;89.49;101446.67;84288;1338;22622;-76